sensor_id;sensor_type;location;lat;lon;timestamp;P1;durP1;ratioP1;P2;durP2;ratioP2
24357;SDS011;13668;52.154;5.580;2023-05-10T00:00:15;11.90;;;6.25;;
24357;SDS011;13668;52.154;5.580;2023-05-10T00:02:41;11.23;;;6.43;;
24357;SDS011;13668;52.154;5.580;2023-05-10T00:05:08;13.98;;;6.65;;
24357;SDS011;13668;52.154;5.580;2023-05-10T00:07:34;12.30;;;7.10;;
24357;SDS011;13668;52.154;5.580;2023-05-10T00:10:00;13.85;;;7.20;;
24357;SDS011;13668;52.154;5.580;2023-05-10T00:12:26;11.65;;;6.40;;
24357;SDS011;13668;52.154;5.580;2023-05-10T00:14:52;10.70;;;5.55;;
24357;SDS011;13668;52.154;5.580;2023-05-10T00:17:17;12.13;;;6.55;;
24357;SDS011;13668;52.154;5.580;2023-05-10T00:19:43;10.85;;;6.20;;
24357;SDS011;13668;52.154;5.580;2023-05-10T00:22:09;12.60;;;7.18;;
24357;SDS011;13668;52.154;5.580;2023-05-10T00:24:35;10.27;;;6.03;;
24357;SDS011;13668;52.154;5.580;2023-05-10T00:27:01;14.02;;;7.07;;
24357;SDS011;13668;52.154;5.580;2023-05-10T00:29:28;9.38;;;4.95;;
24357;SDS011;13668;52.154;5.580;2023-05-10T00:31:54;13.80;;;7.53;;
24357;SDS011;13668;52.154;5.580;2023-05-10T00:34:21;16.77;;;8.02;;
24357;SDS011;13668;52.154;5.580;2023-05-10T00:36:47;13.48;;;7.40;;
24357;SDS011;13668;52.154;5.580;2023-05-10T00:39:13;13.00;;;6.60;;
24357;SDS011;13668;52.154;5.580;2023-05-10T00:41:39;14.82;;;7.72;;
24357;SDS011;13668;52.154;5.580;2023-05-10T00:44:05;15.82;;;7.50;;
24357;SDS011;13668;52.154;5.580;2023-05-10T00:46:31;15.60;;;7.35;;
24357;SDS011;13668;52.154;5.580;2023-05-10T00:48:57;16.30;;;7.32;;
24357;SDS011;13668;52.154;5.580;2023-05-10T00:51:23;17.33;;;9.40;;
24357;SDS011;13668;52.154;5.580;2023-05-10T00:53:49;21.35;;;9.75;;
24357;SDS011;13668;52.154;5.580;2023-05-10T00:56:16;17.92;;;9.30;;
24357;SDS011;13668;52.154;5.580;2023-05-10T00:58:42;21.30;;;9.48;;
24357;SDS011;13668;52.154;5.580;2023-05-10T01:01:08;19.02;;;9.52;;
24357;SDS011;13668;52.154;5.580;2023-05-10T01:03:35;22.92;;;10.27;;
24357;SDS011;13668;52.154;5.580;2023-05-10T01:06:01;19.60;;;9.77;;
24357;SDS011;13668;52.154;5.580;2023-05-10T01:08:28;22.23;;;10.02;;
24357;SDS011;13668;52.154;5.580;2023-05-10T01:10:54;20.63;;;10.25;;
24357;SDS011;13668;52.154;5.580;2023-05-10T01:13:36;22.80;;;10.27;;
24357;SDS011;13668;52.154;5.580;2023-05-10T01:16:03;22.67;;;12.05;;
24357;SDS011;13668;52.154;5.580;2023-05-10T01:18:30;24.88;;;10.93;;
24357;SDS011;13668;52.154;5.580;2023-05-10T01:21:21;20.42;;;9.57;;
24357;SDS011;13668;52.154;5.580;2023-05-10T01:24:09;27.63;;;11.25;;
24357;SDS011;13668;52.154;5.580;2023-05-10T01:31:30;32.28;;;13.68;;
24357;SDS011;13668;52.154;5.580;2023-05-10T01:34:02;30.70;;;12.80;;
24357;SDS011;13668;52.154;5.580;2023-05-10T01:36:30;29.42;;;12.65;;
24357;SDS011;13668;52.154;5.580;2023-05-10T01:41:28;29.30;;;11.57;;
24357;SDS011;13668;52.154;5.580;2023-05-10T01:46:28;30.13;;;12.93;;
24357;SDS011;13668;52.154;5.580;2023-05-10T01:48:57;33.00;;;12.10;;
24357;SDS011;13668;52.154;5.580;2023-05-10T01:51:25;27.10;;;12.50;;
24357;SDS011;13668;52.154;5.580;2023-05-10T01:53:52;28.27;;;12.50;;
24357;SDS011;13668;52.154;5.580;2023-05-10T01:56:20;25.25;;;11.55;;
24357;SDS011;13668;52.154;5.580;2023-05-10T01:58:49;26.50;;;10.50;;
24357;SDS011;13668;52.154;5.580;2023-05-10T02:01:17;24.25;;;10.52;;
24357;SDS011;13668;52.154;5.580;2023-05-10T02:03:45;29.02;;;13.30;;
24357;SDS011;13668;52.154;5.580;2023-05-10T02:06:12;22.55;;;11.27;;
24357;SDS011;13668;52.154;5.580;2023-05-10T02:08:40;27.35;;;13.23;;
24357;SDS011;13668;52.154;5.580;2023-05-10T02:11:06;23.73;;;10.85;;
24357;SDS011;13668;52.154;5.580;2023-05-10T02:13:33;23.90;;;11.25;;
24357;SDS011;13668;52.154;5.580;2023-05-10T02:16:01;22.10;;;11.65;;
24357;SDS011;13668;52.154;5.580;2023-05-10T02:18:28;25.08;;;11.40;;
24357;SDS011;13668;52.154;5.580;2023-05-10T02:20:56;26.17;;;11.93;;
24357;SDS011;13668;52.154;5.580;2023-05-10T02:23:22;25.70;;;11.00;;
24357;SDS011;13668;52.154;5.580;2023-05-10T02:25:49;23.60;;;11.05;;
24357;SDS011;13668;52.154;5.580;2023-05-10T02:28:17;29.13;;;12.32;;
24357;SDS011;13668;52.154;5.580;2023-05-10T02:30:43;21.52;;;10.20;;
24357;SDS011;13668;52.154;5.580;2023-05-10T02:33:09;24.30;;;11.75;;
24357;SDS011;13668;52.154;5.580;2023-05-10T02:35:36;26.65;;;10.65;;
24357;SDS011;13668;52.154;5.580;2023-05-10T02:38:03;27.42;;;12.82;;
24357;SDS011;13668;52.154;5.580;2023-05-10T02:40:30;27.00;;;11.63;;
24357;SDS011;13668;52.154;5.580;2023-05-10T02:42:56;29.85;;;12.43;;
24357;SDS011;13668;52.154;5.580;2023-05-10T02:45:24;26.70;;;10.98;;
24357;SDS011;13668;52.154;5.580;2023-05-10T02:47:51;24.38;;;11.77;;
24357;SDS011;13668;52.154;5.580;2023-05-10T02:50:18;21.50;;;10.90;;
24357;SDS011;13668;52.154;5.580;2023-05-10T02:52:44;25.38;;;10.88;;
24357;SDS011;13668;52.154;5.580;2023-05-10T02:55:12;25.75;;;11.60;;
24357;SDS011;13668;52.154;5.580;2023-05-10T02:57:42;29.38;;;12.27;;
24357;SDS011;13668;52.154;5.580;2023-05-10T03:00:09;22.88;;;10.32;;
24357;SDS011;13668;52.154;5.580;2023-05-10T03:02:35;30.25;;;12.05;;
24357;SDS011;13668;52.154;5.580;2023-05-10T03:05:01;23.40;;;9.45;;
24357;SDS011;13668;52.154;5.580;2023-05-10T03:07:27;29.30;;;11.30;;
24357;SDS011;13668;52.154;5.580;2023-05-10T03:09:53;27.75;;;11.73;;
24357;SDS011;13668;52.154;5.580;2023-05-10T03:18:01;24.50;;;11.82;;
24357;SDS011;13668;52.154;5.580;2023-05-10T03:21:10;31.08;;;14.45;;
24357;SDS011;13668;52.154;5.580;2023-05-10T03:23:27;21.65;;;9.68;;
24357;SDS011;13668;52.154;5.580;2023-05-10T03:25:53;41.42;;;10.63;;
24357;SDS011;13668;52.154;5.580;2023-05-10T03:28:20;31.95;;;11.68;;
24357;SDS011;13668;52.154;5.580;2023-05-10T03:30:46;22.52;;;9.43;;
24357;SDS011;13668;52.154;5.580;2023-05-10T03:33:12;24.00;;;11.00;;
24357;SDS011;13668;52.154;5.580;2023-05-10T03:35:39;26.77;;;11.77;;
24357;SDS011;13668;52.154;5.580;2023-05-10T03:38:05;31.90;;;12.10;;
24357;SDS011;13668;52.154;5.580;2023-05-10T03:40:30;33.15;;;12.02;;
24357;SDS011;13668;52.154;5.580;2023-05-10T03:43:00;26.88;;;12.52;;
24357;SDS011;13668;52.154;5.580;2023-05-10T03:45:26;27.85;;;11.48;;
24357;SDS011;13668;52.154;5.580;2023-05-10T03:47:52;33.42;;;13.68;;
24357;SDS011;13668;52.154;5.580;2023-05-10T03:50:18;40.42;;;14.45;;
24357;SDS011;13668;52.154;5.580;2023-05-10T03:52:44;36.90;;;13.23;;
24357;SDS011;13668;52.154;5.580;2023-05-10T03:55:10;36.33;;;12.23;;
24357;SDS011;13668;52.154;5.580;2023-05-10T03:57:36;34.08;;;11.98;;
24357;SDS011;13668;52.154;5.580;2023-05-10T04:00:03;37.63;;;13.88;;
24357;SDS011;13668;52.154;5.580;2023-05-10T04:02:29;31.63;;;13.13;;
24357;SDS011;13668;52.154;5.580;2023-05-10T04:04:55;34.55;;;12.15;;
24357;SDS011;13668;52.154;5.580;2023-05-10T04:07:21;30.55;;;11.70;;
24357;SDS011;13668;52.154;5.580;2023-05-10T04:09:47;31.35;;;11.50;;
24357;SDS011;13668;52.154;5.580;2023-05-10T04:12:13;28.80;;;10.73;;
24357;SDS011;13668;52.154;5.580;2023-05-10T04:14:39;32.95;;;13.55;;
24357;SDS011;13668;52.154;5.580;2023-05-10T04:17:05;31.63;;;12.27;;
24357;SDS011;13668;52.154;5.580;2023-05-10T04:19:31;33.33;;;10.93;;
24357;SDS011;13668;52.154;5.580;2023-05-10T04:21:58;38.22;;;11.57;;
24357;SDS011;13668;52.154;5.580;2023-05-10T04:24:24;32.80;;;12.40;;
24357;SDS011;13668;52.154;5.580;2023-05-10T04:26:50;32.97;;;12.50;;
24357;SDS011;13668;52.154;5.580;2023-05-10T04:29:16;33.55;;;11.65;;
24357;SDS011;13668;52.154;5.580;2023-05-10T04:31:42;37.78;;;12.80;;
24357;SDS011;13668;52.154;5.580;2023-05-10T04:34:08;37.95;;;12.60;;
24357;SDS011;13668;52.154;5.580;2023-05-10T04:36:34;32.70;;;13.32;;
24357;SDS011;13668;52.154;5.580;2023-05-10T04:39:01;36.05;;;12.02;;
24357;SDS011;13668;52.154;5.580;2023-05-10T04:41:28;38.58;;;12.88;;
24357;SDS011;13668;52.154;5.580;2023-05-10T04:43:54;35.67;;;11.18;;
24357;SDS011;13668;52.154;5.580;2023-05-10T04:46:20;33.78;;;11.75;;
24357;SDS011;13668;52.154;5.580;2023-05-10T04:48:46;27.52;;;12.15;;
24357;SDS011;13668;52.154;5.580;2023-05-10T04:51:12;28.25;;;9.98;;
24357;SDS011;13668;52.154;5.580;2023-05-10T04:53:38;32.72;;;11.15;;
24357;SDS011;13668;52.154;5.580;2023-05-10T04:56:04;29.35;;;10.00;;
24357;SDS011;13668;52.154;5.580;2023-05-10T04:58:30;28.27;;;11.45;;
24357;SDS011;13668;52.154;5.580;2023-05-10T05:00:56;35.33;;;11.70;;
24357;SDS011;13668;52.154;5.580;2023-05-10T05:03:22;34.53;;;13.25;;
24357;SDS011;13668;52.154;5.580;2023-05-10T05:05:48;38.13;;;11.63;;
24357;SDS011;13668;52.154;5.580;2023-05-10T05:08:14;34.05;;;11.77;;
24357;SDS011;13668;52.154;5.580;2023-05-10T05:10:40;28.27;;;11.32;;
24357;SDS011;13668;52.154;5.580;2023-05-10T05:13:06;24.00;;;9.85;;
24357;SDS011;13668;52.154;5.580;2023-05-10T05:15:32;25.92;;;11.00;;
24357;SDS011;13668;52.154;5.580;2023-05-10T05:17:58;26.65;;;10.13;;
24357;SDS011;13668;52.154;5.580;2023-05-10T05:20:25;29.58;;;11.93;;
24357;SDS011;13668;52.154;5.580;2023-05-10T05:22:50;32.55;;;12.15;;
24357;SDS011;13668;52.154;5.580;2023-05-10T05:25:16;41.25;;;12.00;;
24357;SDS011;13668;52.154;5.580;2023-05-10T05:27:42;34.70;;;10.90;;
24357;SDS011;13668;52.154;5.580;2023-05-10T05:30:08;31.17;;;11.95;;
24357;SDS011;13668;52.154;5.580;2023-05-10T05:32:34;35.30;;;13.48;;
24357;SDS011;13668;52.154;5.580;2023-05-10T05:35:00;33.92;;;11.50;;
24357;SDS011;13668;52.154;5.580;2023-05-10T05:37:26;31.23;;;12.23;;
24357;SDS011;13668;52.154;5.580;2023-05-10T05:39:52;32.88;;;11.77;;
24357;SDS011;13668;52.154;5.580;2023-05-10T05:42:19;28.52;;;11.30;;
24357;SDS011;13668;52.154;5.580;2023-05-10T05:44:45;33.40;;;13.65;;
24357;SDS011;13668;52.154;5.580;2023-05-10T05:47:11;36.85;;;11.55;;
24357;SDS011;13668;52.154;5.580;2023-05-10T05:49:37;30.13;;;11.43;;
24357;SDS011;13668;52.154;5.580;2023-05-10T05:52:04;33.30;;;11.82;;
24357;SDS011;13668;52.154;5.580;2023-05-10T05:54:30;39.45;;;12.48;;
24357;SDS011;13668;52.154;5.580;2023-05-10T05:56:57;29.17;;;10.88;;
24357;SDS011;13668;52.154;5.580;2023-05-10T05:59:23;34.72;;;11.40;;
24357;SDS011;13668;52.154;5.580;2023-05-10T06:01:49;34.17;;;12.07;;
24357;SDS011;13668;52.154;5.580;2023-05-10T06:04:15;36.60;;;10.88;;
24357;SDS011;13668;52.154;5.580;2023-05-10T06:06:41;33.42;;;12.23;;
24357;SDS011;13668;52.154;5.580;2023-05-10T06:09:08;29.92;;;12.02;;
24357;SDS011;13668;52.154;5.580;2023-05-10T06:11:34;31.30;;;11.07;;
24357;SDS011;13668;52.154;5.580;2023-05-10T06:14:00;31.13;;;12.32;;
24357;SDS011;13668;52.154;5.580;2023-05-10T06:16:26;33.83;;;13.20;;
24357;SDS011;13668;52.154;5.580;2023-05-10T06:18:52;38.10;;;13.18;;
24357;SDS011;13668;52.154;5.580;2023-05-10T06:21:18;27.77;;;11.57;;
24357;SDS011;13668;52.154;5.580;2023-05-10T06:23:44;30.42;;;12.43;;
24357;SDS011;13668;52.154;5.580;2023-05-10T06:26:10;29.45;;;11.65;;
24357;SDS011;13668;52.154;5.580;2023-05-10T06:28:37;34.65;;;11.40;;
24357;SDS011;13668;52.154;5.580;2023-05-10T06:31:04;35.47;;;14.60;;
24357;SDS011;13668;52.154;5.580;2023-05-10T06:33:30;29.08;;;12.95;;
24357;SDS011;13668;52.154;5.580;2023-05-10T06:35:56;34.65;;;13.30;;
24357;SDS011;13668;52.154;5.580;2023-05-10T06:38:22;27.00;;;11.65;;
24357;SDS011;13668;52.154;5.580;2023-05-10T06:40:48;30.70;;;12.40;;
24357;SDS011;13668;52.154;5.580;2023-05-10T06:43:15;28.17;;;10.90;;
24357;SDS011;13668;52.154;5.580;2023-05-10T06:45:41;26.75;;;11.32;;
24357;SDS011;13668;52.154;5.580;2023-05-10T06:48:07;29.88;;;11.32;;
24357;SDS011;13668;52.154;5.580;2023-05-10T06:50:33;34.97;;;12.95;;
24357;SDS011;13668;52.154;5.580;2023-05-10T06:52:59;26.90;;;10.13;;
24357;SDS011;13668;52.154;5.580;2023-05-10T06:55:26;21.17;;;10.00;;
24357;SDS011;13668;52.154;5.580;2023-05-10T06:57:52;26.77;;;11.30;;
24357;SDS011;13668;52.154;5.580;2023-05-10T07:00:18;25.48;;;10.23;;
24357;SDS011;13668;52.154;5.580;2023-05-10T07:02:45;28.05;;;11.43;;
24357;SDS011;13668;52.154;5.580;2023-05-10T07:05:11;24.88;;;9.27;;
24357;SDS011;13668;52.154;5.580;2023-05-10T07:07:37;20.48;;;10.73;;
24357;SDS011;13668;52.154;5.580;2023-05-10T07:10:03;24.08;;;10.30;;
24357;SDS011;13668;52.154;5.580;2023-05-10T07:12:29;26.27;;;9.57;;
24357;SDS011;13668;52.154;5.580;2023-05-10T07:14:55;19.08;;;8.25;;
24357;SDS011;13668;52.154;5.580;2023-05-10T07:17:21;16.77;;;8.55;;
24357;SDS011;13668;52.154;5.580;2023-05-10T07:19:47;21.25;;;9.40;;
24357;SDS011;13668;52.154;5.580;2023-05-10T07:22:13;15.70;;;7.47;;
24357;SDS011;13668;52.154;5.580;2023-05-10T07:24:40;16.98;;;8.48;;
24357;SDS011;13668;52.154;5.580;2023-05-10T07:27:06;15.40;;;7.35;;
24357;SDS011;13668;52.154;5.580;2023-05-10T07:29:32;15.43;;;7.97;;
24357;SDS011;13668;52.154;5.580;2023-05-10T07:31:58;13.25;;;7.75;;
24357;SDS011;13668;52.154;5.580;2023-05-10T07:34:24;13.93;;;7.25;;
24357;SDS011;13668;52.154;5.580;2023-05-10T07:36:50;15.07;;;7.25;;
24357;SDS011;13668;52.154;5.580;2023-05-10T07:39:16;17.42;;;8.18;;
24357;SDS011;13668;52.154;5.580;2023-05-10T07:41:42;14.13;;;7.10;;
24357;SDS011;13668;52.154;5.580;2023-05-10T07:44:08;12.75;;;7.68;;
24357;SDS011;13668;52.154;5.580;2023-05-10T07:46:34;11.85;;;6.03;;
24357;SDS011;13668;52.154;5.580;2023-05-10T07:49:00;9.95;;;4.88;;
24357;SDS011;13668;52.154;5.580;2023-05-10T07:51:26;11.10;;;5.35;;
24357;SDS011;13668;52.154;5.580;2023-05-10T07:53:52;15.68;;;6.55;;
24357;SDS011;13668;52.154;5.580;2023-05-10T07:56:20;9.05;;;4.85;;
24357;SDS011;13668;52.154;5.580;2023-05-10T07:58:46;8.70;;;4.35;;
24357;SDS011;13668;52.154;5.580;2023-05-10T08:01:12;14.38;;;5.97;;
24357;SDS011;13668;52.154;5.580;2023-05-10T08:03:38;12.75;;;5.75;;
24357;SDS011;13668;52.154;5.580;2023-05-10T08:06:04;9.82;;;4.15;;
24357;SDS011;13668;52.154;5.580;2023-05-10T08:08:30;10.88;;;5.32;;
24357;SDS011;13668;52.154;5.580;2023-05-10T08:10:56;12.75;;;5.25;;
24357;SDS011;13668;52.154;5.580;2023-05-10T08:13:22;13.63;;;5.60;;
24357;SDS011;13668;52.154;5.580;2023-05-10T08:15:48;11.95;;;6.45;;
24357;SDS011;13668;52.154;5.580;2023-05-10T08:18:17;13.23;;;6.35;;
24357;SDS011;13668;52.154;5.580;2023-05-10T08:20:43;11.50;;;5.85;;
24357;SDS011;13668;52.154;5.580;2023-05-10T08:23:09;10.65;;;4.88;;
24357;SDS011;13668;52.154;5.580;2023-05-10T08:25:36;9.80;;;5.38;;
24357;SDS011;13668;52.154;5.580;2023-05-10T08:28:02;13.10;;;6.60;;
24357;SDS011;13668;52.154;5.580;2023-05-10T08:30:28;11.13;;;5.70;;
24357;SDS011;13668;52.154;5.580;2023-05-10T08:32:54;9.43;;;5.38;;
24357;SDS011;13668;52.154;5.580;2023-05-10T08:35:20;9.93;;;4.75;;
24357;SDS011;13668;52.154;5.580;2023-05-10T08:37:45;13.52;;;5.85;;
24357;SDS011;13668;52.154;5.580;2023-05-10T08:40:12;9.75;;;4.80;;
24357;SDS011;13668;52.154;5.580;2023-05-10T08:42:39;9.70;;;5.32;;
24357;SDS011;13668;52.154;5.580;2023-05-10T08:45:06;6.60;;;4.15;;
24357;SDS011;13668;52.154;5.580;2023-05-10T08:47:33;8.65;;;4.63;;
24357;SDS011;13668;52.154;5.580;2023-05-10T08:50:01;7.95;;;4.28;;
24357;SDS011;13668;52.154;5.580;2023-05-10T08:52:28;10.05;;;4.97;;
24357;SDS011;13668;52.154;5.580;2023-05-10T08:54:55;8.35;;;4.65;;
24357;SDS011;13668;52.154;5.580;2023-05-10T08:57:22;8.38;;;5.18;;
24357;SDS011;13668;52.154;5.580;2023-05-10T08:59:48;12.55;;;6.43;;
24357;SDS011;13668;52.154;5.580;2023-05-10T09:02:14;9.57;;;5.38;;
24357;SDS011;13668;52.154;5.580;2023-05-10T09:04:40;8.18;;;4.70;;
24357;SDS011;13668;52.154;5.580;2023-05-10T09:07:06;7.18;;;4.70;;
24357;SDS011;13668;52.154;5.580;2023-05-10T09:09:32;6.95;;;4.32;;
24357;SDS011;13668;52.154;5.580;2023-05-10T09:11:59;10.25;;;5.20;;
24357;SDS011;13668;52.154;5.580;2023-05-10T09:14:25;11.63;;;5.93;;
24357;SDS011;13668;52.154;5.580;2023-05-10T09:16:51;9.05;;;4.60;;
24357;SDS011;13668;52.154;5.580;2023-05-10T09:19:19;7.57;;;4.00;;
24357;SDS011;13668;52.154;5.580;2023-05-10T09:21:45;8.88;;;4.65;;
24357;SDS011;13668;52.154;5.580;2023-05-10T09:24:11;7.13;;;4.40;;
24357;SDS011;13668;52.154;5.580;2023-05-10T09:26:46;7.30;;;4.18;;
24357;SDS011;13668;52.154;5.580;2023-05-10T09:29:16;8.30;;;3.95;;
24357;SDS011;13668;52.154;5.580;2023-05-10T09:31:43;8.45;;;4.80;;
24357;SDS011;13668;52.154;5.580;2023-05-10T09:34:09;7.20;;;5.07;;
24357;SDS011;13668;52.154;5.580;2023-05-10T09:36:35;7.47;;;4.53;;
24357;SDS011;13668;52.154;5.580;2023-05-10T09:39:02;6.95;;;4.10;;
24357;SDS011;13668;52.154;5.580;2023-05-10T09:41:28;8.68;;;4.75;;
24357;SDS011;13668;52.154;5.580;2023-05-10T09:43:56;6.80;;;4.47;;
24357;SDS011;13668;52.154;5.580;2023-05-10T09:46:22;9.35;;;4.88;;
24357;SDS011;13668;52.154;5.580;2023-05-10T09:48:48;8.15;;;3.78;;
24357;SDS011;13668;52.154;5.580;2023-05-10T09:53:47;7.65;;;3.67;;
24357;SDS011;13668;52.154;5.580;2023-05-10T09:56:32;8.02;;;3.72;;
24357;SDS011;13668;52.154;5.580;2023-05-10T09:59:01;6.50;;;4.53;;
24357;SDS011;13668;52.154;5.580;2023-05-10T10:01:28;5.03;;;3.40;;
24357;SDS011;13668;52.154;5.580;2023-05-10T10:03:54;6.45;;;3.47;;
24357;SDS011;13668;52.154;5.580;2023-05-10T10:06:22;4.45;;;3.13;;
24357;SDS011;13668;52.154;5.580;2023-05-10T10:08:48;4.40;;;2.70;;
24357;SDS011;13668;52.154;5.580;2023-05-10T10:11:15;3.53;;;2.13;;
24357;SDS011;13668;52.154;5.580;2023-05-10T10:13:41;4.32;;;3.35;;
24357;SDS011;13668;52.154;5.580;2023-05-10T10:16:07;4.13;;;2.67;;
24357;SDS011;13668;52.154;5.580;2023-05-10T10:18:33;3.53;;;2.58;;
24357;SDS011;13668;52.154;5.580;2023-05-10T10:21:04;2.22;;;1.80;;
24357;SDS011;13668;52.154;5.580;2023-05-10T10:23:30;4.43;;;3.17;;
24357;SDS011;13668;52.154;5.580;2023-05-10T10:25:56;3.65;;;2.28;;
24357;SDS011;13668;52.154;5.580;2023-05-10T10:30:49;3.30;;;2.13;;
24357;SDS011;13668;52.154;5.580;2023-05-10T10:36:02;3.88;;;2.05;;
24357;SDS011;13668;52.154;5.580;2023-05-10T10:41:34;4.00;;;2.35;;
24357;SDS011;13668;52.154;5.580;2023-05-10T10:49:52;3.60;;;1.98;;
24357;SDS011;13668;52.154;5.580;2023-05-10T10:54:49;2.72;;;2.00;;
24357;SDS011;13668;52.154;5.580;2023-05-10T10:57:17;2.92;;;2.03;;
24357;SDS011;13668;52.154;5.580;2023-05-10T10:59:43;3.15;;;1.98;;
24357;SDS011;13668;52.154;5.580;2023-05-10T11:02:10;1.88;;;1.63;;
24357;SDS011;13668;52.154;5.580;2023-05-10T11:04:56;2.17;;;1.95;;
24357;SDS011;13668;52.154;5.580;2023-05-10T11:07:22;2.42;;;1.50;;
24357;SDS011;13668;52.154;5.580;2023-05-10T11:09:48;2.67;;;1.83;;
24357;SDS011;13668;52.154;5.580;2023-05-10T11:12:14;2.78;;;1.83;;
24357;SDS011;13668;52.154;5.580;2023-05-10T11:14:40;4.53;;;2.03;;
24357;SDS011;13668;52.154;5.580;2023-05-10T11:17:27;4.45;;;2.40;;
24357;SDS011;13668;52.154;5.580;2023-05-10T11:20:06;4.38;;;2.40;;
24357;SDS011;13668;52.154;5.580;2023-05-10T11:22:49;3.97;;;2.88;;
24357;SDS011;13668;52.154;5.580;2023-05-10T11:25:16;4.70;;;3.20;;
24357;SDS011;13668;52.154;5.580;2023-05-10T11:27:42;5.22;;;2.88;;
24357;SDS011;13668;52.154;5.580;2023-05-10T11:30:11;5.95;;;2.70;;
24357;SDS011;13668;52.154;5.580;2023-05-10T11:32:38;5.28;;;3.20;;
24357;SDS011;13668;52.154;5.580;2023-05-10T11:35:08;3.83;;;2.65;;
24357;SDS011;13668;52.154;5.580;2023-05-10T11:37:34;3.88;;;2.90;;
24357;SDS011;13668;52.154;5.580;2023-05-10T11:40:00;4.50;;;2.80;;
24357;SDS011;13668;52.154;5.580;2023-05-10T11:42:27;3.78;;;3.08;;
24357;SDS011;13668;52.154;5.580;2023-05-10T11:44:53;4.80;;;2.83;;
24357;SDS011;13668;52.154;5.580;2023-05-10T11:47:19;4.35;;;2.58;;
24357;SDS011;13668;52.154;5.580;2023-05-10T11:49:46;3.63;;;2.45;;
24357;SDS011;13668;52.154;5.580;2023-05-10T11:52:12;2.72;;;2.33;;
24357;SDS011;13668;52.154;5.580;2023-05-10T11:54:44;3.42;;;2.40;;
24357;SDS011;13668;52.154;5.580;2023-05-10T11:57:11;4.22;;;2.63;;
24357;SDS011;13668;52.154;5.580;2023-05-10T11:59:37;3.05;;;2.35;;
24357;SDS011;13668;52.154;5.580;2023-05-10T12:02:03;3.08;;;2.08;;
24357;SDS011;13668;52.154;5.580;2023-05-10T12:04:29;5.35;;;2.15;;
24357;SDS011;13668;52.154;5.580;2023-05-10T12:06:55;3.25;;;2.08;;
24357;SDS011;13668;52.154;5.580;2023-05-10T12:09:21;3.25;;;1.95;;
24357;SDS011;13668;52.154;5.580;2023-05-10T12:11:47;4.22;;;2.38;;
24357;SDS011;13668;52.154;5.580;2023-05-10T12:14:13;5.55;;;2.60;;
24357;SDS011;13668;52.154;5.580;2023-05-10T12:16:40;3.20;;;1.90;;
24357;SDS011;13668;52.154;5.580;2023-05-10T12:19:08;5.72;;;2.50;;
24357;SDS011;13668;52.154;5.580;2023-05-10T12:21:34;2.50;;;1.90;;
24357;SDS011;13668;52.154;5.580;2023-05-10T12:24:03;4.00;;;2.35;;
24357;SDS011;13668;52.154;5.580;2023-05-10T12:26:32;3.70;;;2.45;;
24357;SDS011;13668;52.154;5.580;2023-05-10T12:29:12;2.85;;;2.22;;
24357;SDS011;13668;52.154;5.580;2023-05-10T12:31:51;5.00;;;2.53;;
24357;SDS011;13668;52.154;5.580;2023-05-10T12:34:24;2.47;;;2.28;;
24357;SDS011;13668;52.154;5.580;2023-05-10T12:36:54;2.78;;;2.22;;
24357;SDS011;13668;52.154;5.580;2023-05-10T12:39:20;3.58;;;2.30;;
24357;SDS011;13668;52.154;5.580;2023-05-10T12:41:46;2.42;;;1.85;;
24357;SDS011;13668;52.154;5.580;2023-05-10T12:44:12;1.92;;;1.67;;
24357;SDS011;13668;52.154;5.580;2023-05-10T12:46:38;3.30;;;2.17;;
24357;SDS011;13668;52.154;5.580;2023-05-10T12:49:04;2.97;;;2.33;;
24357;SDS011;13668;52.154;5.580;2023-05-10T12:51:30;2.88;;;1.90;;
24357;SDS011;13668;52.154;5.580;2023-05-10T12:53:56;3.65;;;2.80;;
24357;SDS011;13668;52.154;5.580;2023-05-10T12:56:22;2.47;;;1.48;;
24357;SDS011;13668;52.154;5.580;2023-05-10T12:58:48;1.50;;;1.33;;
24357;SDS011;13668;52.154;5.580;2023-05-10T13:01:14;3.03;;;1.35;;
24357;SDS011;13668;52.154;5.580;2023-05-10T13:03:40;4.28;;;1.73;;
24357;SDS011;13668;52.154;5.580;2023-05-10T13:06:07;3.25;;;1.60;;
24357;SDS011;13668;52.154;5.580;2023-05-10T13:08:33;1.85;;;1.60;;
24357;SDS011;13668;52.154;5.580;2023-05-10T13:11:00;3.22;;;1.83;;
24357;SDS011;13668;52.154;5.580;2023-05-10T13:13:26;2.38;;;1.75;;
24357;SDS011;13668;52.154;5.580;2023-05-10T13:15:52;1.67;;;1.55;;
24357;SDS011;13668;52.154;5.580;2023-05-10T13:18:18;2.28;;;1.73;;
24357;SDS011;13668;52.154;5.580;2023-05-10T13:20:44;3.83;;;1.48;;
24357;SDS011;13668;52.154;5.580;2023-05-10T13:23:10;1.60;;;1.15;;
24357;SDS011;13668;52.154;5.580;2023-05-10T13:25:36;1.45;;;1.20;;
24357;SDS011;13668;52.154;5.580;2023-05-10T13:28:02;2.42;;;1.13;;
24357;SDS011;13668;52.154;5.580;2023-05-10T13:30:28;1.77;;;1.20;;
24357;SDS011;13668;52.154;5.580;2023-05-10T13:32:54;2.00;;;1.23;;
24357;SDS011;13668;52.154;5.580;2023-05-10T13:35:20;2.85;;;1.30;;
24357;SDS011;13668;52.154;5.580;2023-05-10T13:37:46;1.48;;;0.95;;
24357;SDS011;13668;52.154;5.580;2023-05-10T13:40:12;2.20;;;1.08;;
24357;SDS011;13668;52.154;5.580;2023-05-10T13:42:40;2.17;;;0.90;;
24357;SDS011;13668;52.154;5.580;2023-05-10T13:45:06;2.42;;;1.17;;
24357;SDS011;13668;52.154;5.580;2023-05-10T13:47:32;0.70;;;0.60;;
24357;SDS011;13668;52.154;5.580;2023-05-10T13:49:58;1.42;;;0.60;;
24357;SDS011;13668;52.154;5.580;2023-05-10T13:52:24;1.50;;;0.93;;
24357;SDS011;13668;52.154;5.580;2023-05-10T13:54:50;3.25;;;1.50;;
24357;SDS011;13668;52.154;5.580;2023-05-10T13:57:19;3.38;;;2.03;;
24357;SDS011;13668;52.154;5.580;2023-05-10T13:59:45;3.72;;;3.00;;
24357;SDS011;13668;52.154;5.580;2023-05-10T14:02:11;4.47;;;2.35;;
24357;SDS011;13668;52.154;5.580;2023-05-10T14:04:38;5.63;;;2.22;;
24357;SDS011;13668;52.154;5.580;2023-05-10T14:07:04;2.58;;;2.15;;
24357;SDS011;13668;52.154;5.580;2023-05-10T14:09:30;4.63;;;2.15;;
24357;SDS011;13668;52.154;5.580;2023-05-10T14:11:56;2.88;;;2.30;;
24357;SDS011;13668;52.154;5.580;2023-05-10T14:14:22;2.17;;;1.70;;
24357;SDS011;13668;52.154;5.580;2023-05-10T14:16:48;3.80;;;2.25;;
24357;SDS011;13668;52.154;5.580;2023-05-10T14:19:14;3.03;;;1.63;;
24357;SDS011;13668;52.154;5.580;2023-05-10T14:21:40;3.88;;;2.45;;
24357;SDS011;13668;52.154;5.580;2023-05-10T14:24:06;3.40;;;2.15;;
24357;SDS011;13668;52.154;5.580;2023-05-10T14:26:32;3.50;;;2.58;;
24357;SDS011;13668;52.154;5.580;2023-05-10T14:28:59;3.88;;;2.67;;
24357;SDS011;13668;52.154;5.580;2023-05-10T14:31:25;2.78;;;1.77;;
24357;SDS011;13668;52.154;5.580;2023-05-10T14:33:51;3.65;;;2.08;;
24357;SDS011;13668;52.154;5.580;2023-05-10T14:36:17;4.22;;;2.88;;
24357;SDS011;13668;52.154;5.580;2023-05-10T14:38:43;4.18;;;2.63;;
24357;SDS011;13668;52.154;5.580;2023-05-10T14:41:09;3.25;;;1.92;;
24357;SDS011;13668;52.154;5.580;2023-05-10T14:43:39;5.32;;;2.17;;
24357;SDS011;13668;52.154;5.580;2023-05-10T14:46:05;3.70;;;2.65;;
24357;SDS011;13668;52.154;5.580;2023-05-10T14:48:31;2.28;;;1.98;;
24357;SDS011;13668;52.154;5.580;2023-05-10T14:50:57;3.10;;;1.73;;
24357;SDS011;13668;52.154;5.580;2023-05-10T14:53:23;3.28;;;1.88;;
24357;SDS011;13668;52.154;5.580;2023-05-10T14:55:49;2.80;;;1.92;;
24357;SDS011;13668;52.154;5.580;2023-05-10T14:58:15;3.33;;;2.13;;
24357;SDS011;13668;52.154;5.580;2023-05-10T15:00:41;4.93;;;2.47;;
24357;SDS011;13668;52.154;5.580;2023-05-10T15:03:08;3.33;;;2.10;;
24357;SDS011;13668;52.154;5.580;2023-05-10T15:05:34;3.25;;;2.20;;
24357;SDS011;13668;52.154;5.580;2023-05-10T15:08:02;2.70;;;1.95;;